Time;durP1;ratioP1;P1;durP2;ratioP2;P2;SDS_P1;SDS_P2;PMS_P1;PMS_P2;Temp;Humidity;BMP_temperature;BMP_pressure;BME280_temperature;BME280_humidity;BME280_pressure;Samples;Min_cycle;Max_cycle;Signal;HPM_P1;HPM_P2
2021/01/13 00:01:03;;;;;;;10.02;7.45;;;;;;;1.26;77.64;98972.63;5096070;28;20070;-68
2021/01/13 00:03:30;;;;;;;10.95;7.70;;;;;;;1.20;77.57;98975.75;5094981;28;20425;-69
2021/01/13 00:05:57;;;;;;;11.73;7.53;;;;;;;1.11;77.78;98982.56;5093539;28;20059;-69
2021/01/13 00:08:24;;;;;;;12.20;7.72;;;;;;;1.11;77.81;98989.56;5094686;28;20051;-69
2021/01/13 00:10:51;;;;;;;10.50;7.63;;;;;;;1.13;77.84;98982.41;5093273;28;20040;-69
2021/01/13 00:13:18;;;;;;;11.35;7.78;;;;;;;1.14;77.78;98984.91;5094691;28;20052;-69
2021/01/13 00:15:45;;;;;;;13.00;8.27;;;;;;;1.12;77.85;98983.38;5094650;28;20043;-69
2021/01/13 00:18:12;;;;;;;11.43;7.63;;;;;;;1.11;77.90;98984.34;5094718;28;20039;-68
2021/01/13 00:20:39;;;;;;;14.43;8.88;;;;;;;1.01;77.55;98986.88;5095131;28;20040;-68
2021/01/13 00:23:05;;;;;;;14.85;8.98;;;;;;;0.93;77.70;98981.47;5095003;28;20044;-68
2021/01/13 00:25:33;;;;;;;16.05;9.05;;;;;;;0.92;78.28;98972.03;5092852;28;20044;-68
2021/01/13 00:28:03;;;;;;;17.17;9.85;;;;;;;0.97;78.12;98982.88;5092884;28;20051;-69
2021/01/13 00:30:30;;;;;;;15.00;8.68;;;;;;;0.94;77.78;98986.56;5092406;28;20055;-69
2021/01/13 00:32:59;;;;;;;15.07;7.95;;;;;;;0.88;78.22;98973.22;5092443;28;20117;-68
2021/01/13 00:35:25;;;;;;;12.75;8.38;;;;;;;0.89;78.17;98982.69;5093391;28;20048;-68
2021/01/13 00:37:52;;;;;;;13.55;8.80;;;;;;;0.86;78.22;98981.19;5093776;28;20391;-68
2021/01/13 00:40:19;;;;;;;14.57;8.60;;;;;;;0.83;78.20;98983.19;5093897;28;20397;-68
2021/01/13 00:42:47;;;;;;;16.40;9.45;;;;;;;0.80;78.09;98981.66;5092601;28;20135;-68
2021/01/13 00:45:16;;;;;;;17.13;8.90;;;;;;;0.76;78.00;98985.47;5093373;28;20059;-68
2021/01/13 00:47:43;;;;;;;14.27;9.10;;;;;;;0.73;78.44;98980.50;5093575;28;20044;-68
2021/01/13 00:50:12;;;;;;;15.38;9.60;;;;;;;0.72;78.26;98994.47;5092059;28;20126;-68
2021/01/13 00:52:45;;;;;;;22.15;9.45;;;;;;;0.64;78.59;98995.09;5092314;28;20462;-68
2021/01/13 00:55:12;;;;;;;13.65;9.05;;;;;;;0.68;78.45;98998.28;5093489;28;20040;-68
2021/01/13 00:57:38;;;;;;;16.73;8.93;;;;;;;0.70;78.40;98986.00;5092448;28;20040;-68
2021/01/13 01:00:07;;;;;;;14.82;9.23;;;;;;;0.74;78.30;98990.81;5092678;28;20105;-68
2021/01/13 01:02:34;;;;;;;15.20;8.77;;;;;;;0.75;78.09;99004.66;5093510;28;20044;-68
2021/01/13 01:05:01;;;;;;;16.02;8.63;;;;;;;0.71;78.03;99005.84;5093758;28;20039;-68
2021/01/13 01:07:28;;;;;;;13.95;8.40;;;;;;;0.70;78.08;99001.59;5094143;28;20413;-68
2021/01/13 01:09:55;;;;;;;13.20;8.32;;;;;;;0.69;78.04;99003.38;5094156;28;20080;-68
2021/01/13 01:12:22;;;;;;;10.88;8.07;;;;;;;0.67;78.14;99004.44;5094086;28;20075;-68
2021/01/13 01:14:50;;;;;;;19.13;9.85;;;;;;;0.63;78.11;99009.06;5092696;28;20052;-68
2021/01/13 01:17:17;;;;;;;13.80;8.85;;;;;;;0.58;78.20;99005.19;5094166;28;20047;-68
2021/01/13 01:19:45;;;;;;;15.05;8.88;;;;;;;0.62;78.20;99002.22;5094554;28;20040;-68
2021/01/13 01:22:11;;;;;;;15.40;8.48;;;;;;;0.62;78.19;98998.78;5093861;28;20458;-68
2021/01/13 01:24:38;;;;;;;13.55;8.77;;;;;;;0.62;78.18;99002.22;5095072;28;20048;-68
2021/01/13 01:27:05;;;;;;;15.40;9.23;;;;;;;0.66;78.03;99005.41;5094842;28;20048;-68
2021/01/13 01:29:31;;;;;;;13.15;8.02;;;;;;;0.67;77.91;99007.03;5095189;28;20105;-68
2021/01/13 01:31:58;;;;;;;13.32;8.52;;;;;;;0.59;77.65;99015.47;5095481;28;20060;-68
2021/01/13 01:34:25;;;;;;;18.33;9.15;;;;;;;0.58;78.11;99018.22;5094500;28;20425;-68
2021/01/13 01:36:56;;;;;;;13.10;9.35;;;;;;;0.59;77.87;99018.06;5092748;28;20322;-68
2021/01/13 01:39:22;;;;;;;22.25;9.02;;;;;;;0.53;77.79;99021.19;5094946;28;20111;-67
2021/01/13 01:41:50;;;;;;;20.70;9.30;;;;;;;0.40;77.94;99025.69;5095976;28;20146;-67
2021/01/13 01:44:16;;;;;;;15.05;8.48;;;;;;;0.39;78.36;99027.47;5097409;28;20048;-67
2021/01/13 01:46:45;;;;;;;12.25;8.50;;;;;;;0.43;78.29;99034.06;5097574;28;20055;-67
2021/01/13 01:49:15;;;;;;;14.95;8.65;;;;;;;0.44;78.22;99035.72;5097531;28;20048;-67
2021/01/13 01:51:47;;;;;;;13.88;8.88;;;;;;;0.47;78.05;99040.69;5098999;28;20050;-67
2021/01/13 01:54:16;;;;;;;16.30;8.27;;;;;;;0.37;78.21;99034.59;5098677;28;20126;-67
2021/01/13 01:56:45;;;;;;;14.38;7.72;;;;;;;0.41;78.23;99045.56;5098523;28;20271;-67
2021/01/13 01:59:14;;;;;;;11.50;7.70;;;;;;;0.41;78.04;99045.56;5097326;28;20146;-67
2021/01/13 02:01:41;;;;;;;15.25;8.05;;;;;;;0.32;78.02;99041.06;5098691;28;20043;-67
2021/01/13 02:04:17;;;;;;;13.05;7.88;;;;;;;0.28;78.26;99045.69;5097211;28;20090;-67
2021/01/13 02:07:28;;;;;;;14.70;7.93;;;;;;;0.28;78.22;99047.47;5098457;28;20490;-67
2021/01/13 02:09:56;;;;;;;16.75;9.63;;;;;;;0.24;77.62;99050.34;5098501;28;20040;-67
2021/01/13 02:12:31;;;;;;;16.52;8.07;;;;;;;0.20;78.23;99048.94;5098615;28;20083;-67
2021/01/13 02:14:59;;;;;;;15.98;9.23;;;;;;;0.21;78.36;99042.78;5098597;28;20040;-67
2021/01/13 02:17:34;;;;;;;15.50;8.50;;;;;;;0.19;78.43;99046.44;5098499;28;20083;-67
2021/01/13 02:20:07;;;;;;;13.45;8.18;;;;;;;0.20;78.35;99045.47;5098710;28;20119;-67
2021/01/13 02:22:51;;;;;;;14.13;9.27;;;;;;;0.18;78.18;99047.38;5097159;28;20048;-67
2021/01/13 02:25:57;;;;;;;13.68;8.55;;;;;;;0.21;78.17;99040.16;5096796;28;20051;-67
2021/01/13 02:28:27;;;;;;;12.15;8.48;;;;;;;0.20;78.02;99037.66;5097570;28;20056;-67
2021/01/13 02:31:23;;;;;;;18.48;8.93;;;;;;;0.20;78.12;99041.13;5097006;28;20036;-67
2021/01/13 02:33:53;;;;;;;17.42;8.82;;;;;;;0.11;77.98;99038.41;5097866;28;20048;-67
2021/01/13 02:36:31;;;;;;;15.52;8.57;;;;;;;0.09;77.95;99038.53;5097959;28;20052;-67
2021/01/13 02:39:01;;;;;;;15.02;9.20;;;;;;;0.06;77.88;99056.97;5098632;28;20033;-67
2021/01/13 02:41:29;;;;;;;15.85;8.32;;;;;;;0.03;77.95;99057.19;5097096;28;20394;-67
2021/01/13 02:43:58;;;;;;;15.75;9.73;;;;;;;0.01;78.08;99053.91;5097883;28;20044;-67
2021/01/13 02:46:51;;;;;;;14.65;9.50;;;;;;;-0.02;78.12;99060.16;5097876;28;20042;-67
2021/01/13 02:52:27;;;;;;;16.73;9.80;;;;;;;-0.13;77.93;99060.16;5098812;28;20060;-67
2021/01/13 02:54:59;;;;;;;18.10;9.27;;;;;;;-0.16;78.09;99068.22;5099005;28;20051;-67
2021/01/13 02:57:28;;;;;;;15.05;9.02;;;;;;;-0.13;78.34;99067.13;5097959;28;20134;-67
2021/01/13 02:59:57;;;;;;;16.38;9.88;;;;;;;-0.14;78.45;99074.09;5099763;28;20057;-67
2021/01/13 03:02:35;;;;;;;14.93;9.35;;;;;;;-0.15;78.42;99063.84;5098693;28;20079;-67
2021/01/13 03:05:02;;;;;;;16.27;9.07;;;;;;;-0.12;78.32;99069.63;5096894;28;20046;-67
2021/01/13 03:07:35;;;;;;;16.67;9.35;;;;;;;-0.10;78.28;99065.13;5097375;28;20494;-67
2021/01/13 03:10:10;;;;;;;19.58;10.68;;;;;;;-0.07;78.12;99064.06;5098569;28;20047;-67
2021/01/13 03:12:40;;;;;;;15.77;9.10;;;;;;;-0.13;77.94;99064.53;5098027;28;20048;-67
2021/01/13 03:15:09;;;;;;;18.30;10.10;;;;;;;-0.11;78.23;99071.28;5097442;28;20036;-67
2021/01/13 03:17:54;;;;;;;14.45;9.48;;;;;;;-0.10;78.16;99066.91;5097439;28;20048;-67
2021/01/13 03:20:26;;;;;;;19.88;9.48;;;;;;;-0.13;78.07;99067.13;5097444;28;20047;-67
2021/01/13 03:23:06;;;;;;;15.75;10.30;;;;;;;-0.26;78.14;99065.47;5097850;28;20044;-67
2021/01/13 03:25:45;;;;;;;18.25;10.05;;;;;;;-0.24;78.53;99067.97;5095572;28;20501;-67
2021/01/13 03:28:16;;;;;;;21.50;10.13;;;;;;;-0.34;78.49;99077.41;5099240;28;20048;-66
2021/01/13 03:30:48;;;;;;;16.92;9.82;;;;;;;-0.38;78.44;99089.78;5102692;28;20036;-66
2021/01/13 03:33:44;;;;;;;17.40;10.13;;;;;;;-0.50;78.96;99091.53;5101226;28;20056;-67
2021/01/13 03:36:19;;;;;;;18.08;10.05;;;;;;;-0.50;79.21;99090.72;5097374;28;20062;-67
2021/01/13 03:39:02;;;;;;;22.13;11.32;;;;;;;-0.54;79.42;99092.72;5095462;28;20048;-67
2021/01/13 03:41:59;;;;;;;19.17;11.10;;;;;;;-0.62;79.28;99104.63;5095849;28;20055;-67
2021/01/13 03:44:27;;;;;;;23.95;10.85;;;;;;;-0.65;79.43;99097.06;5097358;28;20079;-67
2021/01/13 03:46:57;;;;;;;17.83;9.85;;;;;;;-0.66;79.46;99093.63;5096119;28;20044;-67
2021/01/13 03:49:27;;;;;;;20.48;11.73;;;;;;;-0.59;79.38;99094.00;5096169;28;20040;-67
2021/01/13 03:52:03;;;;;;;20.73;10.05;;;;;;;-0.56;79.57;99096.38;5096949;28;20074;-67
2021/01/13 03:54:36;;;;;;;16.17;10.30;;;;;;;-0.51;79.42;99104.66;5095984;28;20112;-67
2021/01/13 03:57:05;;;;;;;21.65;11.27;;;;;;;-0.51;79.27;99102.03;5096450;28;20044;-67
2021/01/13 03:59:47;;;;;;;18.17;9.80;;;;;;;-0.53;79.10;99099.56;5095729;28;20124;-67
2021/01/13 04:02:18;;;;;;;18.25;10.32;;;;;;;-0.49;79.22;99107.97;5095177;28;20048;-67
2021/01/13 04:04:55;;;;;;;18.23;10.60;;;;;;;-0.45;79.10;99111.13;5094381;28;20097;-67
2021/01/13 04:07:23;;;;;;;18.10;9.63;;;;;;;-0.41;79.12;99113.41;5096409;28;20099;-67
2021/01/13 04:09:52;;;;;;;18.80;11.10;;;;;;;-0.32;79.08;99112.72;5096684;28;20053;-67
2021/01/13 04:12:21;;;;;;;24.20;10.95;;;;;;;-0.32;78.89;99107.53;5095065;28;20040;-67
2021/01/13 04:14:55;;;;;;;15.60;10.32;;;;;;;-0.30;78.82;99105.63;5094921;28;20048;-67
2021/01/13 04:17:25;;;;;;;20.63;10.68;;;;;;;-0.24;78.74;99113.91;5096428;28;20051;-67
2021/01/13 04:19:53;;;;;;;19.48;11.23;;;;;;;-0.37;78.50;99112.25;5095282;28;20072;-67
2021/01/13 04:22:27;;;;;;;20.63;10.85;;;;;;;-0.40;78.64;99109.88;5095004;28;20044;-67
2021/01/13 04:24:55;;;;;;;17.50;10.52;;;;;;;-0.48;78.74;99109.63;5094745;28;20051;-67
2021/01/13 04:27:22;;;;;;;19.45;11.23;;;;;;;-0.46;79.01;99105.13;5096739;28;20037;-67
2021/01/13 04:29:50;;;;;;;20.17;11.43;;;;;;;-0.45;78.91;99116.34;5096425;28;20490;-67
2021/01/13 04:32:17;;;;;;;20.88;10.88;;;;;;;-0.47;79.05;99118.22;5096582;28;20040;-67
2021/01/13 04:34:45;;;;;;;19.95;10.70;;;;;;;-0.51;79.08;99112.44;5094770;28;20048;-67
2021/01/13 04:37:13;;;;;;;21.42;11.68;;;;;;;-0.42;79.28;99109.16;5094872;28;20379;-67
2021/01/13 04:39:40;;;;;;;14.80;9.90;;;;;;;-0.38;79.26;99105.38;5094674;28;20044;-67
2021/01/13 04:42:10;;;;;;;27.35;11.45;;;;;;;-0.35;78.61;99115.53;5096052;28;20119;-67
2021/01/13 04:44:56;;;;;;;19.30;9.60;;;;;;;-0.37;78.98;99108.78;5094419;28;20056;-67
2021/01/13 04:47:41;;;;;;;18.50;9.82;;;;;;;-0.34;78.93;99103.38;5095449;28;20060;-67
2021/01/13 04:50:11;;;;;;;15.85;9.50;;;;;;;-0.29;78.89;99107.28;5095932;28;20211;-67
2021/01/13 04:52:42;;;;;;;20.65;10.05;;;;;;;-0.25;78.55;99113.06;5095833;28;20559;-67
2021/01/13 04:55:21;;;;;;;19.50;10.32;;;;;;;-0.19;78.45;99119.59;5095214;28;20036;-67
2021/01/13 04:58:25;;;;;;;14.57;9.35;;;;;;;-0.26;78.21;99114.00;5095556;28;20059;-67
2021/01/13 05:01:19;;;;;;;15.32;9.95;;;;;;;-0.37;78.17;99114.84;5095643;28;20051;-68
2021/01/13 05:03:59;;;;;;;20.83;10.50;;;;;;;-0.41;78.53;99121.22;5095053;28;20054;-68
2021/01/13 05:07:03;;;;;;;17.83;9.57;;;;;;;-0.44;78.58;99121.44;5094756;28;20044;-67
2021/01/13 05:09:43;;;;;;;16.45;10.25;;;;;;;-0.45;78.58;99122.38;5094149;28;20058;-67
2021/01/13 05:12:12;;;;;;;15.90;9.20;;;;;;;-0.45;78.94;99127.56;5093989;28;20093;-67
2021/01/13 05:14:46;;;;;;;23.80;10.75;;;;;;;-0.48;78.63;99127.78;5095178;28;20047;-67
2021/01/13 05:17:33;;;;;;;21.40;9.50;;;;;;;-0.48;78.74;99127.78;5094903;28;20410;-67
2021/01/13 05:20:23;;;;;;;16.77;9.13;;;;;;;-0.41;78.67;99121.22;5095210;28;20044;-67
2021/01/13 05:22:52;;;;;;;16.35;10.52;;;;;;;-0.35;78.63;99120.72;5095166;28;20044;-67
2021/01/13 05:25:36;;;;;;;19.15;10.18;;;;;;;-0.46;78.37;99104.28;5095004;28;20044;-67
2021/01/13 05:28:05;;;;;;;18.77;9.93;;;;;;;-0.46;78.38;99117.28;5095535;28;20051;-67
2021/01/13 05:30:34;;;;;;;17.90;10.23;;;;;;;-0.51;78.38;99115.84;5095602;28;20040;-67
2021/01/13 05:33:07;;;;;;;15.65;9.38;;;;;;;-0.48;78.71;99124.38;5094023;28;20406;-67
2021/01/13 05:35:36;;;;;;;15.63;9.55;;;;;;;-0.43;78.60;99128.28;5093183;28;20044;-67
2021/01/13 05:38:10;;;;;;;20.85;10.57;;;;;;;-0.38;78.32;99120.97;5093679;28;20070;-67
2021/01/13 05:40:45;;;;;;;16.95;9.20;;;;;;;-0.32;78.04;99120.50;5095587;28;20055;-67
2021/01/13 05:43:12;;;;;;;21.15;8.90;;;;;;;-0.35;77.98;99119.91;5095220;28;20044;-66
2021/01/13 05:45:40;;;;;;;15.77;9.20;;;;;;;-0.32;77.96;99114.50;5093626;28;20052;-66
2021/01/13 05:48:26;;;;;;;19.65;9.50;;;;;;;-0.29;77.85;99114.22;5095113;28;20040;-66
2021/01/13 05:50:55;;;;;;;21.95;9.80;;;;;;;-0.35;77.75;99114.72;5093599;28;20186;-66
2021/01/13 05:53:26;;;;;;;16.15;10.35;;;;;;;-0.37;77.71;99124.38;5094318;28;20480;-67
2021/01/13 05:55:54;;;;;;;17.52;9.65;;;;;;;-0.40;77.97;99124.63;5093940;28;20082;-66
2021/01/13 05:58:26;;;;;;;18.35;9.32;;;;;;;-0.42;77.63;99124.72;5093723;28;20051;-66
2021/01/13 06:00:56;;;;;;;19.02;10.77;;;;;;;-0.41;77.41;99121.22;5095410;28;20115;-66
2021/01/13 06:03:25;;;;;;;16.40;10.32;;;;;;;-0.46;77.57;99125.91;5094360;28;20120;-66
2021/01/13 06:05:54;;;;;;;21.80;10.35;;;;;;;-0.48;77.67;99122.59;5094740;28;20048;-66
2021/01/13 06:08:26;;;;;;;26.65;12.70;;;;;;;-0.47;77.63;99123.44;5095314;28;20093;-66
2021/01/13 06:10:58;;;;;;;17.90;10.10;;;;;;;-0.46;77.41;99122.47;5095056;28;20040;-67
2021/01/13 06:13:32;;;;;;;16.90;10.80;;;;;;;-0.54;77.25;99123.88;5095001;28;20059;-67
2021/01/13 06:16:04;;;;;;;21.33;11.27;;;;;;;-0.63;77.25;99121.13;5094563;28;20040;-67
2021/01/13 06:18:32;;;;;;;19.52;10.38;;;;;;;-0.66;77.45;99119.59;5094625;28;20097;-67
2021/01/13 06:21:08;;;;;;;19.38;11.25;;;;;;;-0.76;77.15;99116.84;5093680;28;20467;-67
2021/01/13 06:23:48;;;;;;;17.65;11.60;;;;;;;-0.92;77.24;99123.28;5093945;28;20508;-67
2021/01/13 06:26:16;;;;;;;20.75;10.60;;;;;;;-1.01;77.37;99123.03;5095678;28;20051;-67
2021/01/13 06:29:26;;;;;;;22.55;10.45;;;;;;;-1.09;77.58;99121.94;5100716;28;20374;-67
2021/01/13 06:31:57;;;;;;;23.33;10.00;;;;;;;-1.01;78.01;99115.22;5097739;28;20040;-67
2021/01/13 06:34:28;;;;;;;15.88;8.70;;;;;;;-0.96;77.80;99111.47;5098481;28;20562;-67
2021/01/13 06:37:12;;;;;;;17.02;10.20;;;;;;;-0.83;77.89;99120.00;5099789;28;20044;-67
2021/01/13 06:39:41;;;;;;;13.50;8.27;;;;;;;-0.76;77.68;99123.81;5099306;28;20428;-66
2021/01/13 06:42:07;;;;;;;23.58;9.68;;;;;;;-0.79;77.28;99122.25;5100003;28;20055;-66
2021/01/13 06:44:45;;;;;;;19.63;9.90;;;;;;;-0.97;77.29;99122.81;5097753;28;20044;-66
2021/01/13 06:47:12;;;;;;;19.98;9.63;;;;;;;-1.05;77.66;99124.19;5098609;28;20070;-66
2021/01/13 06:49:39;;;;;;;18.17;9.85;;;;;;;-1.01;77.98;99124.78;5097617;28;20131;-66
2021/01/13 06:52:08;;;;;;;16.67;9.80;;;;;;;-0.91;78.17;99130.13;5097489;28;20142;-66
2021/01/13 06:54:44;;;;;;;13.23;9.65;;;;;;;-0.94;77.80;99136.38;5097906;28;20306;-67
2021/01/13 06:57:12;;;;;;;21.83;9.63;;;;;;;-0.95;78.18;99144.25;5099240;28;20046;-67
2021/01/13 06:59:40;;;;;;;15.23;8.43;;;;;;;-0.88;78.04;99128.13;5098474;28;20054;-67
2021/01/13 07:02:09;;;;;;;17.13;9.23;;;;;;;-0.78;77.95;99129.13;5099052;28;20036;-66
2021/01/13 07:04:45;;;;;;;16.63;9.02;;;;;;;-0.71;78.06;99129.50;5095923;28;20409;-66
2021/01/13 07:07:13;;;;;;;15.38;8.82;;;;;;;-0.66;78.19;99137.75;5096846;28;20039;-66
2021/01/13 07:09:43;;;;;;;16.23;8.55;;;;;;;-0.57;78.16;99146.66;5096569;28;20077;-67
2021/01/13 07:12:12;;;;;;;17.25;9.20;;;;;;;-0.56;78.09;99149.13;5095107;28;20067;-67
2021/01/13 07:14:41;;;;;;;18.08;10.57;;;;;;;-0.56;77.90;99158.69;5095083;28;20051;-67
2021/01/13 07:17:10;;;;;;;18.65;9.98;;;;;;;-0.60;78.10;99152.09;5094541;28;20409;-67
2021/01/13 07:19:38;;;;;;;21.02;10.30;;;;;;;-0.60;77.70;99142.53;5095010;28;20135;-67
2021/01/13 07:22:05;;;;;;;18.58;10.00;;;;;;;-0.50;77.86;99153.88;5096887;28;20031;-67
2021/01/13 07:24:32;;;;;;;17.88;10.20;;;;;;;-0.46;77.58;99153.66;5096359;28;20048;-67
2021/01/13 07:27:00;;;;;;;21.90;10.63;;;;;;;-0.51;77.22;99154.81;5095065;28;20055;-67
2021/01/13 07:29:28;;;;;;;19.38;10.82;;;;;;;-0.64;76.98;99154.06;5097611;28;20066;-67
2021/01/13 07:31:57;;;;;;;14.98;9.52;;;;;;;-0.63;77.53;99154.91;5099557;28;20040;-67
2021/01/13 07:34:33;;;;;;;19.75;10.63;;;;;;;-0.52;77.91;99162.72;5100109;28;20043;-66
2021/01/13 07:37:02;;;;;;;13.57;9.60;;;;;;;-0.42;77.91;99157.66;5099087;28;20044;-67
2021/01/13 07:40:14;;;;;;;17.20;9.27;;;;;;;-0.22;77.90;99153.59;5096256;28;20044;-67
2021/01/13 07:42:44;;;;;;;19.48;9.27;;;;;;;-0.12;77.52;99160.59;5095819;28;20105;-67
2021/01/13 07:45:13;;;;;;;19.60;9.68;;;;;;;-0.09;77.25;99162.94;5095919;28;20040;-67
2021/01/13 07:48:15;;;;;;;18.55;11.25;;;;;;;-0.14;76.85;99162.44;5095838;28;20410;-67
2021/01/13 07:50:43;;;;;;;20.90;10.73;;;;;;;-0.14;76.97;99157.25;5095481;28;20432;-67
2021/01/13 07:53:21;;;;;;;26.20;9.68;;;;;;;-0.05;77.20;99164.34;5095446;28;20043;-67
2021/01/13 07:55:56;;;;;;;18.02;10.93;;;;;;;0.07;77.17;99151.38;5095646;28;20040;-67
2021/01/13 07:58:27;;;;;;;23.70;11.35;;;;;;;0.09;77.14;99160.72;5095398;28;20052;-67
2021/01/13 08:01:14;;;;;;;22.55;12.65;;;;;;;0.18;77.42;99161.78;5095433;28;20521;-67
2021/01/13 08:04:18;;;;;;;30.65;13.90;;;;;;;0.27;77.47;99168.03;5094056;28;20055;-67
2021/01/13 08:06:48;;;;;;;28.00;13.15;;;;;;;0.38;77.77;99161.06;5094562;28;20118;-67
2021/01/13 08:09:18;;;;;;;30.73;13.93;;;;;;;0.41;77.51;99163.44;5096100;28;20051;-67
2021/01/13 08:12:14;;;;;;;23.45;14.30;;;;;;;0.45;77.57;99169.22;5094851;28;20044;-67
2021/01/13 08:15:29;;;;;;;28.50;13.32;;;;;;;0.48;77.54;99159.38;5096593;28;20044;-68
2021/01/13 08:18:41;;;;;;;28.38;12.35;;;;;;;0.56;77.59;99170.97;5095343;28;20055;-68
2021/01/13 08:21:13;;;;;;;23.85;12.38;;;;;;;0.60;77.68;99175.00;5081429;28;20050;-68
2021/01/13 08:23:47;;;;;;;23.73;13.00;;;;;;;0.68;77.69;99181.25;5096120;28;20048;-68
2021/01/13 08:26:15;;;;;;;30.40;14.43;;;;;;;0.70;77.68;99178.53;5095445;28;20424;-68
2021/01/13 08:28:44;;;;;;;33.33;15.20;;;;;;;0.77;77.71;99171.88;5095443;28;20055;-68
2021/01/13 08:31:11;;;;;;;28.25;13.95;;;;;;;0.81;77.70;99175.91;5094451;28;20081;-67
2021/01/13 08:33:40;;;;;;;26.15;13.57;;;;;;;0.87;77.75;99175.44;5095542;28;20071;-67
2021/01/13 08:36:10;;;;;;;25.20;14.27;;;;;;;0.94;77.68;99178.38;5094648;28;20050;-67
2021/01/13 08:38:37;;;;;;;27.35;14.70;;;;;;;1.01;77.54;99182.13;5093715;28;20101;-67
2021/01/13 08:41:24;;;;;;;32.47;15.35;;;;;;;1.08;77.53;99172.88;5094783;28;20044;-67
2021/01/13 08:44:12;;;;;;;28.60;14.77;;;;;;;1.16;77.30;99177.47;5094364;28;20131;-68
2021/01/13 08:46:48;;;;;;;25.73;14.77;;;;;;;1.21;77.02;99173.53;5095318;28;20070;-67
2021/01/13 08:49:23;;;;;;;27.73;15.15;;;;;;;1.18;77.12;99186.84;5094727;28;20039;-68
2021/01/13 08:52:12;;;;;;;26.45;14.10;;;;;;;1.14;77.03;99185.44;5094167;28;20494;-67
2021/01/13 08:54:40;;;;;;;22.08;13.98;;;;;;;1.16;77.04;99186.13;5093811;28;20048;-67
2021/01/13 08:57:08;;;;;;;33.83;15.63;;;;;;;1.22;77.10;99171.75;5094246;28;20418;-67
2021/01/13 08:59:43;;;;;;;31.33;14.48;;;;;;;1.23;76.99;99176.88;5095539;28;20101;-67
2021/01/13 09:02:12;;;;;;;26.35;14.20;;;;;;;1.26;76.94;99180.16;5094114;28;20147;-68
2021/01/13 09:04:52;;;;;;;24.05;14.05;;;;;;;1.37;76.88;99183.53;5092830;28;20048;-67
2021/01/13 09:07:22;;;;;;;25.75;12.82;;;;;;;1.42;76.76;99181.38;5093032;28;20054;-68
2021/01/13 09:09:57;;;;;;;23.20;12.98;;;;;;;1.53;76.90;99177.09;5092834;28;20131;-68
2021/01/13 09:12:42;;;;;;;20.63;12.13;;;;;;;1.62;76.60;99181.53;5091501;28;20414;-68
2021/01/13 09:15:18;;;;;;;19.45;12.85;;;;;;;1.70;76.40;99179.13;5091374;28;20077;-68
2021/01/13 09:17:57;;;;;;;22.27;12.57;;;;;;;1.79;76.26;99182.75;5092480;28;20052;-67
2021/01/13 09:20:28;;;;;;;21.95;12.35;;;;;;;1.90;76.05;99180.06;5091518;28;20150;-68
2021/01/13 09:22:58;;;;;;;20.48;11.60;;;;;;;1.96;75.65;99174.38;5092390;28;20047;-68
2021/01/13 09:25:26;;;;;;;25.73;12.85;;;;;;;1.98;75.36;99188.09;5090600;28;20148;-67
2021/01/13 09:27:55;;;;;;;32.00;16.63;;;;;;;2.02;75.79;99180.84;5092166;28;20046;-68
2021/01/13 09:30:29;;;;;;;26.33;14.32;;;;;;;2.05;75.43;99177.97;5090693;28;20079;-68
2021/01/13 09:32:57;;;;;;;26.65;13.13;;;;;;;1.99;75.29;99187.13;5092036;28;20036;-68
2021/01/13 09:35:25;;;;;;;35.63;18.55;;;;;;;2.02;75.32;99176.44;5091672;28;20039;-68
2021/01/13 09:37:53;;;;;;;36.15;18.13;;;;;;;2.10;75.37;99184.44;5091840;28;20047;-69
2021/01/13 09:40:22;;;;;;;31.85;17.08;;;;;;;2.16;75.28;99191.78;5090462;28;20052;-68
2021/01/13 09:42:56;;;;;;;33.88;16.40;;;;;;;2.28;75.35;99192.50;5091980;28;20086;-68
2021/01/13 09:45:36;;;;;;;31.02;16.55;;;;;;;2.35;75.15;99187.59;5090234;28;20044;-67
2021/01/13 09:48:17;;;;;;;27.73;14.90;;;;;;;2.44;75.20;99194.63;5090737;28;20051;-67
2021/01/13 09:50:45;;;;;;;22.58;13.15;;;;;;;2.51;75.23;99187.94;5090530;28;20063;-68
2021/01/13 09:53:13;;;;;;;23.75;12.68;;;;;;;2.59;75.04;99201.16;5091788;28;20037;-68
2021/01/13 09:55:41;;;;;;;21.33;13.02;;;;;;;2.66;74.82;99193.63;5091462;28;20048;-68
2021/01/13 09:58:16;;;;;;;28.15;14.95;;;;;;;2.70;74.73;99200.22;5091973;28;20037;-68
2021/01/13 10:00:43;;;;;;;22.67;13.18;;;;;;;2.78;73.99;99192.56;5092228;28;20051;-68
2021/01/13 10:03:11;;;;;;;20.25;11.27;;;;;;;2.78;74.18;99189.94;5095013;28;20074;-68
2021/01/13 10:05:39;;;;;;;20.58;12.50;;;;;;;2.81;74.62;99189.66;5095581;28;20150;-68
2021/01/13 10:08:06;;;;;;;22.38;13.30;;;;;;;2.94;74.23;99186.81;5095874;28;20044;-68
2021/01/13 10:10:33;;;;;;;26.10;12.48;;;;;;;2.90;74.33;99190.66;5095809;28;20047;-68
2021/01/13 10:13:02;;;;;;;21.70;11.13;;;;;;;2.90;74.02;99181.03;5095485;28;20042;-68
2021/01/13 10:15:30;;;;;;;22.35;12.68;;;;;;;2.88;73.53;99182.13;5095287;28;20044;-67
2021/01/13 10:18:02;;;;;;;22.75;12.32;;;;;;;2.83;73.87;99176.50;5095519;28;20501;-67
2021/01/13 10:20:30;;;;;;;19.38;11.35;;;;;;;2.93;74.60;99177.31;5096185;28;20193;-67
2021/01/13 10:23:00;;;;;;;24.00;11.38;;;;;;;3.02;74.06;99168.69;5096402;28;20040;-67
2021/01/13 10:25:29;;;;;;;17.27;10.07;;;;;;;3.02;73.88;99166.09;5094476;28;20058;-67
2021/01/13 10:27:58;;;;;;;19.02;10.05;;;;;;;3.05;73.67;99168.41;5095925;28;20079;-68
2021/01/13 10:30:27;;;;;;;19.85;10.75;;;;;;;3.19;73.43;99169.81;5095627;28;20059;-68
2021/01/13 10:32:56;;;;;;;19.27;9.55;;;;;;;3.22;73.32;99167.75;5095520;28;20067;-67
2021/01/13 10:35:24;;;;;;;24.73;9.95;;;;;;;3.26;73.44;99162.22;5095350;28;20044;-67
2021/01/13 10:37:52;;;;;;;16.60;9.20;;;;;;;3.28;73.42;99171.59;5095368;28;20391;-68
2021/01/13 10:40:21;;;;;;;17.98;10.15;;;;;;;3.31;73.37;99170.50;5095559;28;20479;-68
2021/01/13 10:43:10;;;;;;;19.63;11.07;;;;;;;3.33;73.07;99156.31;5095406;28;20036;-68
2021/01/13 10:45:42;;;;;;;20.42;9.88;;;;;;;3.34;73.02;99155.34;5094891;28;20044;-67
2021/01/13 10:48:09;;;;;;;19.10;9.80;;;;;;;3.34;73.17;99159.75;5095321;28;20082;-68
2021/01/13 10:50:40;;;;;;;20.85;10.68;;;;;;;3.36;72.91;99160.47;5095071;28;20042;-67
2021/01/13 10:53:08;;;;;;;23.13;11.55;;;;;;;3.40;72.97;99156.59;5094886;28;20226;-67
2021/01/13 10:55:44;;;;;;;16.67;9.10;;;;;;;3.33;72.69;99150.28;5094705;28;20040;-67
2021/01/13 10:58:12;;;;;;;18.60;11.13;;;;;;;3.39;72.87;99139.28;5093805;28;20052;-68
2021/01/13 11:00:40;;;;;;;20.90;11.40;;;;;;;3.43;72.59;99136.25;5094903;28;20391;-67
2021/01/13 11:03:07;;;;;;;18.75;9.70;;;;;;;3.45;72.70;99136.91;5094785;28;20040;-67
2021/01/13 11:05:35;;;;;;;18.45;9.40;;;;;;;3.46;72.65;99129.91;5093127;28;20054;-67
2021/01/13 11:08:03;;;;;;;19.17;9.43;;;;;;;3.52;72.47;99126.75;5094721;28;20054;-67
2021/01/13 11:10:30;;;;;;;18.85;9.68;;;;;;;3.47;72.33;99126.34;5094596;28;20055;-67
2021/01/13 11:13:01;;;;;;;14.43;9.13;;;;;;;3.35;72.60;99124.84;5094520;28;20054;-67
2021/01/13 11:15:28;;;;;;;15.82;9.27;;;;;;;3.42;72.50;99121.50;5094425;28;20075;-67
2021/01/13 11:17:57;;;;;;;20.23;12.07;;;;;;;3.42;72.52;99115.47;5095647;28;20516;-67
2021/01/13 11:20:28;;;;;;;15.05;8.70;;;;;;;3.39;72.35;99107.94;5094433;28;20501;-67
2021/01/13 11:22:57;;;;;;;17.88;9.88;;;;;;;3.44;72.49;99103.09;5095038;28;20043;-68
2021/01/13 11:25:27;;;;;;;19.73;9.75;;;;;;;3.42;72.29;99097.16;5095303;28;20036;-68
2021/01/13 11:27:58;;;;;;;19.60;8.45;;;;;;;3.43;72.06;99086.59;5094952;28;20490;-67
2021/01/13 11:30:26;;;;;;;17.42;10.05;;;;;;;3.42;72.25;99086.72;5094579;28;20101;-68
2021/01/13 11:32:57;;;;;;;20.02;10.80;;;;;;;3.54;72.24;99079.53;5093303;28;20040;-68
2021/01/13 11:35:28;;;;;;;14.48;8.25;;;;;;;3.54;72.20;99079.53;5093330;28;20048;-68
2021/01/13 11:38:38;;;;;;;16.40;9.05;;;;;;;3.62;71.62;99077.03;5093307;28;20059;-68
2021/01/13 11:41:27;;;;;;;14.55;7.75;;;;;;;3.66;71.68;99073.19;5074056;28;20048;-68
2021/01/13 11:44:20;;;;;;;19.15;9.15;;;;;;;3.72;71.28;99065.59;5094254;28;20059;-67
2021/01/13 11:46:54;;;;;;;10.32;6.75;;;;;;;3.75;71.04;99059.25;5094045;28;20105;-68
2021/01/13 11:49:41;;;;;;;10.57;6.55;;;;;;;3.78;70.85;99058.97;5092796;28;20143;-68
2021/01/13 11:52:09;;;;;;;13.35;6.57;;;;;;;3.85;71.03;99054.81;5093971;28;20040;-67
2021/01/13 11:54:36;;;;;;;10.93;6.55;;;;;;;3.88;70.57;99054.53;5093600;28;20085;-68
2021/01/13 11:57:21;;;;;;;11.10;6.00;;;;;;;3.83;70.07;99059.38;5092415;28;20052;-67